sensor_id;sensor_type;location;lat;lon;timestamp;temperature;humidity
12276;DHT22;6200;48.144;11.424;2022-10-16T00:01:09;13.40;99.90
12276;DHT22;6200;48.144;11.424;2022-10-16T00:03:37;13.30;99.90
12276;DHT22;6200;48.144;11.424;2022-10-16T00:06:03;13.30;99.90
12276;DHT22;6200;48.144;11.424;2022-10-16T00:08:29;13.30;99.90
12276;DHT22;6200;48.144;11.424;2022-10-16T00:11:07;13.30;99.90
12276;DHT22;6200;48.144;11.424;2022-10-16T00:13:34;13.30;99.90
12276;DHT22;6200;48.144;11.424;2022-10-16T00:16:01;13.30;99.90
12276;DHT22;6200;48.144;11.424;2022-10-16T00:18:27;13.20;99.90
12276;DHT22;6200;48.144;11.424;2022-10-16T00:20:54;13.20;99.90
12276;DHT22;6200;48.144;11.424;2022-10-16T00:23:20;13.20;99.90
12276;DHT22;6200;48.144;11.424;2022-10-16T00:25:54;13.10;99.90
12276;DHT22;6200;48.144;11.424;2022-10-16T00:28:20;13.10;99.90
12276;DHT22;6200;48.144;11.424;2022-10-16T00:30:46;13.10;99.90
12276;DHT22;6200;48.144;11.424;2022-10-16T00:33:11;13.10;99.90
12276;DHT22;6200;48.144;11.424;2022-10-16T00:35:37;13.10;99.90
12276;DHT22;6200;48.144;11.424;2022-10-16T00:38:02;13.10;99.90
12276;DHT22;6200;48.144;11.424;2022-10-16T00:40:28;13.10;99.90
12276;DHT22;6200;48.144;11.424;2022-10-16T00:42:54;13.10;99.90
12276;DHT22;6200;48.144;11.424;2022-10-16T00:45:20;13.10;99.90
12276;DHT22;6200;48.144;11.424;2022-10-16T00:47:46;13.10;99.90
12276;DHT22;6200;48.144;11.424;2022-10-16T00:50:29;13.00;99.90
12276;DHT22;6200;48.144;11.424;2022-10-16T00:52:56;12.90;99.90
12276;DHT22;6200;48.144;11.424;2022-10-16T00:55:22;13.00;99.90
12276;DHT22;6200;48.144;11.424;2022-10-16T00:57:50;13.00;99.90
12276;DHT22;6200;48.144;11.424;2022-10-16T01:00:20;13.00;99.90
12276;DHT22;6200;48.144;11.424;2022-10-16T01:02:53;12.90;99.90
12276;DHT22;6200;48.144;11.424;2022-10-16T01:05:21;12.90;99.90
12276;DHT22;6200;48.144;11.424;2022-10-16T01:10:52;12.90;99.90
12276;DHT22;6200;48.144;11.424;2022-10-16T01:13:40;12.90;99.90
12276;DHT22;6200;48.144;11.424;2022-10-16T01:16:15;12.90;99.90
12276;DHT22;6200;48.144;11.424;2022-10-16T01:18:48;12.90;99.90
12276;DHT22;6200;48.144;11.424;2022-10-16T01:21:26;12.80;99.90
12276;DHT22;6200;48.144;11.424;2022-10-16T01:24:15;12.80;99.90
12276;DHT22;6200;48.144;11.424;2022-10-16T01:27:11;12.80;99.90
12276;DHT22;6200;48.144;11.424;2022-10-16T01:29:42;12.80;99.90
12276;DHT22;6200;48.144;11.424;2022-10-16T01:32:17;12.80;99.90
12276;DHT22;6200;48.144;11.424;2022-10-16T01:35:29;12.80;99.90
12276;DHT22;6200;48.144;11.424;2022-10-16T01:38:32;12.80;99.90
12276;DHT22;6200;48.144;11.424;2022-10-16T01:40:58;12.80;99.90
12276;DHT22;6200;48.144;11.424;2022-10-16T01:43:33;12.80;99.90
12276;DHT22;6200;48.144;11.424;2022-10-16T01:46:01;12.80;99.90
12276;DHT22;6200;48.144;11.424;2022-10-16T01:48:29;12.80;99.90
12276;DHT22;6200;48.144;11.424;2022-10-16T01:51:15;12.80;99.90
12276;DHT22;6200;48.144;11.424;2022-10-16T01:53:44;12.80;99.90
12276;DHT22;6200;48.144;11.424;2022-10-16T01:56:13;12.80;99.90
12276;DHT22;6200;48.144;11.424;2022-10-16T01:58:51;12.90;99.90
12276;DHT22;6200;48.144;11.424;2022-10-16T02:01:19;12.90;99.90
12276;DHT22;6200;48.144;11.424;2022-10-16T02:03:46;12.90;99.90
12276;DHT22;6200;48.144;11.424;2022-10-16T02:06:14;12.90;99.90
12276;DHT22;6200;48.144;11.424;2022-10-16T02:08:40;12.90;99.90
12276;DHT22;6200;48.144;11.424;2022-10-16T02:11:09;12.90;99.90
12276;DHT22;6200;48.144;11.424;2022-10-16T02:13:59;13.00;99.90
12276;DHT22;6200;48.144;11.424;2022-10-16T02:16:35;13.00;99.90
12276;DHT22;6200;48.144;11.424;2022-10-16T02:19:00;13.00;99.90
12276;DHT22;6200;48.144;11.424;2022-10-16T02:21:29;13.00;99.90
12276;DHT22;6200;48.144;11.424;2022-10-16T02:27:19;13.00;99.90
12276;DHT22;6200;48.144;11.424;2022-10-16T02:29:46;13.00;99.90
12276;DHT22;6200;48.144;11.424;2022-10-16T02:32:17;13.10;99.90
12276;DHT22;6200;48.144;11.424;2022-10-16T02:34:45;13.10;99.90
12276;DHT22;6200;48.144;11.424;2022-10-16T02:37:12;13.10;99.90
12276;DHT22;6200;48.144;11.424;2022-10-16T02:39:38;13.10;99.90
12276;DHT22;6200;48.144;11.424;2022-10-16T02:42:11;13.10;99.90
12276;DHT22;6200;48.144;11.424;2022-10-16T02:44:36;13.00;99.90
12276;DHT22;6200;48.144;11.424;2022-10-16T02:47:02;13.00;99.90
12276;DHT22;6200;48.144;11.424;2022-10-16T02:49:27;13.00;99.90
12276;DHT22;6200;48.144;11.424;2022-10-16T02:51:53;13.00;99.90
12276;DHT22;6200;48.144;11.424;2022-10-16T02:54:19;13.00;99.90
12276;DHT22;6200;48.144;11.424;2022-10-16T02:56:44;13.00;99.90
12276;DHT22;6200;48.144;11.424;2022-10-16T02:59:10;13.00;99.90
12276;DHT22;6200;48.144;11.424;2022-10-16T03:01:35;13.00;99.90
12276;DHT22;6200;48.144;11.424;2022-10-16T03:04:01;13.00;99.90
12276;DHT22;6200;48.144;11.424;2022-10-16T03:06:26;13.00;99.90
12276;DHT22;6200;48.144;11.424;2022-10-16T03:08:52;13.00;99.90
12276;DHT22;6200;48.144;11.424;2022-10-16T03:11:17;13.00;99.90
12276;DHT22;6200;48.144;11.424;2022-10-16T03:13:43;13.00;99.90
12276;DHT22;6200;48.144;11.424;2022-10-16T03:16:08;13.00;99.90
12276;DHT22;6200;48.144;11.424;2022-10-16T03:18:34;13.00;99.90
12276;DHT22;6200;48.144;11.424;2022-10-16T03:20:59;13.00;99.90
12276;DHT22;6200;48.144;11.424;2022-10-16T03:23:25;13.00;99.90
12276;DHT22;6200;48.144;11.424;2022-10-16T03:25:50;13.00;99.90
12276;DHT22;6200;48.144;11.424;2022-10-16T03:28:16;13.00;99.90
12276;DHT22;6200;48.144;11.424;2022-10-16T03:30:43;13.00;99.90
12276;DHT22;6200;48.144;11.424;2022-10-16T03:33:08;13.00;99.90
12276;DHT22;6200;48.144;11.424;2022-10-16T03:35:34;13.00;99.90
12276;DHT22;6200;48.144;11.424;2022-10-16T03:37:59;13.00;99.90
12276;DHT22;6200;48.144;11.424;2022-10-16T03:40:25;13.10;99.90
12276;DHT22;6200;48.144;11.424;2022-10-16T03:42:51;13.10;99.90
12276;DHT22;6200;48.144;11.424;2022-10-16T03:45:16;13.10;99.90
12276;DHT22;6200;48.144;11.424;2022-10-16T03:47:42;13.10;99.90
12276;DHT22;6200;48.144;11.424;2022-10-16T03:50:07;13.10;99.90
12276;DHT22;6200;48.144;11.424;2022-10-16T03:52:33;13.10;99.90
12276;DHT22;6200;48.144;11.424;2022-10-16T03:54:59;13.10;99.90
12276;DHT22;6200;48.144;11.424;2022-10-16T03:57:25;13.10;99.90
12276;DHT22;6200;48.144;11.424;2022-10-16T03:59:50;13.20;99.90
12276;DHT22;6200;48.144;11.424;2022-10-16T04:02:16;13.20;99.90
12276;DHT22;6200;48.144;11.424;2022-10-16T04:04:42;13.20;99.90
12276;DHT22;6200;48.144;11.424;2022-10-16T04:07:07;13.20;99.90
12276;DHT22;6200;48.144;11.424;2022-10-16T04:09:33;13.30;99.90
12276;DHT22;6200;48.144;11.424;2022-10-16T04:11:59;13.30;99.90
12276;DHT22;6200;48.144;11.424;2022-10-16T04:14:24;13.20;99.90
12276;DHT22;6200;48.144;11.424;2022-10-16T04:16:50;13.30;99.90
12276;DHT22;6200;48.144;11.424;2022-10-16T04:19:16;13.30;99.90
12276;DHT22;6200;48.144;11.424;2022-10-16T04:21:41;13.30;99.90
12276;DHT22;6200;48.144;11.424;2022-10-16T04:24:07;13.20;99.90
12276;DHT22;6200;48.144;11.424;2022-10-16T04:26:32;13.30;99.90
12276;DHT22;6200;48.144;11.424;2022-10-16T04:28:58;13.30;99.90
12276;DHT22;6200;48.144;11.424;2022-10-16T04:31:24;13.30;99.90
12276;DHT22;6200;48.144;11.424;2022-10-16T04:33:49;13.30;99.90
12276;DHT22;6200;48.144;11.424;2022-10-16T04:36:15;13.30;99.90
12276;DHT22;6200;48.144;11.424;2022-10-16T04:38:41;13.30;99.90
12276;DHT22;6200;48.144;11.424;2022-10-16T04:41:07;13.30;99.90
12276;DHT22;6200;48.144;11.424;2022-10-16T04:43:33;13.30;99.90
12276;DHT22;6200;48.144;11.424;2022-10-16T04:45:59;13.30;99.90
12276;DHT22;6200;48.144;11.424;2022-10-16T04:48:25;13.30;99.90
12276;DHT22;6200;48.144;11.424;2022-10-16T04:50:50;13.30;99.90
12276;DHT22;6200;48.144;11.424;2022-10-16T04:53:16;13.30;99.90
12276;DHT22;6200;48.144;11.424;2022-10-16T04:55:42;13.30;99.90
12276;DHT22;6200;48.144;11.424;2022-10-16T04:58:08;13.30;99.90
12276;DHT22;6200;48.144;11.424;2022-10-16T05:00:34;13.30;99.90
12276;DHT22;6200;48.144;11.424;2022-10-16T05:03:00;13.30;99.90
12276;DHT22;6200;48.144;11.424;2022-10-16T05:05:26;13.30;99.90
12276;DHT22;6200;48.144;11.424;2022-10-16T05:07:52;13.30;99.90
12276;DHT22;6200;48.144;11.424;2022-10-16T05:10:18;13.30;99.90
12276;DHT22;6200;48.144;11.424;2022-10-16T05:12:43;13.40;99.90
12276;DHT22;6200;48.144;11.424;2022-10-16T05:15:09;13.40;99.90
12276;DHT22;6200;48.144;11.424;2022-10-16T05:17:35;13.30;99.90
12276;DHT22;6200;48.144;11.424;2022-10-16T05:20:00;13.30;99.90
12276;DHT22;6200;48.144;11.424;2022-10-16T05:22:26;12.20;99.90
12276;DHT22;6200;48.144;11.424;2022-10-16T05:24:51;13.30;99.90
12276;DHT22;6200;48.144;11.424;2022-10-16T05:27:17;13.40;99.90
12276;DHT22;6200;48.144;11.424;2022-10-16T05:29:46;13.30;99.90
12276;DHT22;6200;48.144;11.424;2022-10-16T05:32:16;13.40;99.90
12276;DHT22;6200;48.144;11.424;2022-10-16T05:34:42;13.30;99.90
12276;DHT22;6200;48.144;11.424;2022-10-16T05:37:07;13.40;99.90
12276;DHT22;6200;48.144;11.424;2022-10-16T05:39:33;13.40;99.90
12276;DHT22;6200;48.144;11.424;2022-10-16T05:41:59;13.40;99.90
12276;DHT22;6200;48.144;11.424;2022-10-16T05:44:24;13.30;99.90
12276;DHT22;6200;48.144;11.424;2022-10-16T05:46:50;13.30;99.90
12276;DHT22;6200;48.144;11.424;2022-10-16T05:49:16;13.30;99.90
12276;DHT22;6200;48.144;11.424;2022-10-16T05:51:41;13.30;99.90
12276;DHT22;6200;48.144;11.424;2022-10-16T05:54:07;13.30;99.90
12276;DHT22;6200;48.144;11.424;2022-10-16T05:56:33;13.30;99.90
12276;DHT22;6200;48.144;11.424;2022-10-16T05:58:58;13.30;99.90
12276;DHT22;6200;48.144;11.424;2022-10-16T06:01:24;13.30;99.90
12276;DHT22;6200;48.144;11.424;2022-10-16T06:03:53;13.30;99.90
12276;DHT22;6200;48.144;11.424;2022-10-16T06:06:20;13.30;99.90
12276;DHT22;6200;48.144;11.424;2022-10-16T06:08:47;13.30;99.90
12276;DHT22;6200;48.144;11.424;2022-10-16T06:11:24;13.30;99.90
12276;DHT22;6200;48.144;11.424;2022-10-16T06:13:52;13.30;99.90
12276;DHT22;6200;48.144;11.424;2022-10-16T06:16:17;13.30;99.90
12276;DHT22;6200;48.144;11.424;2022-10-16T06:18:43;13.30;99.90
12276;DHT22;6200;48.144;11.424;2022-10-16T06:21:11;13.30;99.90
12276;DHT22;6200;48.144;11.424;2022-10-16T06:23:37;13.30;99.90
12276;DHT22;6200;48.144;11.424;2022-10-16T06:26:14;13.30;99.90
12276;DHT22;6200;48.144;11.424;2022-10-16T06:28:40;13.20;99.90
12276;DHT22;6200;48.144;11.424;2022-10-16T06:31:06;13.20;99.90
12276;DHT22;6200;48.144;11.424;2022-10-16T06:33:32;13.20;99.90
12276;DHT22;6200;48.144;11.424;2022-10-16T06:36:03;13.30;99.90
12276;DHT22;6200;48.144;11.424;2022-10-16T06:38:29;13.30;99.90
12276;DHT22;6200;48.144;11.424;2022-10-16T06:40:55;13.30;99.90
12276;DHT22;6200;48.144;11.424;2022-10-16T06:43:21;13.30;99.90
12276;DHT22;6200;48.144;11.424;2022-10-16T06:45:54;13.20;99.90
12276;DHT22;6200;48.144;11.424;2022-10-16T06:48:20;13.20;99.90
12276;DHT22;6200;48.144;11.424;2022-10-16T06:51:00;13.20;99.90
12276;DHT22;6200;48.144;11.424;2022-10-16T06:53:28;13.20;99.90
12276;DHT22;6200;48.144;11.424;2022-10-16T06:55:53;13.20;99.90
12276;DHT22;6200;48.144;11.424;2022-10-16T06:58:19;13.30;99.90
12276;DHT22;6200;48.144;11.424;2022-10-16T07:00:44;13.30;99.90
12276;DHT22;6200;48.144;11.424;2022-10-16T07:03:10;13.30;99.90
12276;DHT22;6200;48.144;11.424;2022-10-16T07:05:39;13.30;99.90
12276;DHT22;6200;48.144;11.424;2022-10-16T07:08:05;13.30;99.90
12276;DHT22;6200;48.144;11.424;2022-10-16T07:10:32;13.40;99.90
12276;DHT22;6200;48.144;11.424;2022-10-16T07:12:58;13.40;99.90
12276;DHT22;6200;48.144;11.424;2022-10-16T07:15:25;13.40;99.90
12276;DHT22;6200;48.144;11.424;2022-10-16T07:17:51;13.50;99.90
12276;DHT22;6200;48.144;11.424;2022-10-16T07:20:17;13.50;99.90
12276;DHT22;6200;48.144;11.424;2022-10-16T07:22:42;13.60;99.90
12276;DHT22;6200;48.144;11.424;2022-10-16T07:25:08;13.60;99.90
12276;DHT22;6200;48.144;11.424;2022-10-16T07:27:34;13.70;99.90
12276;DHT22;6200;48.144;11.424;2022-10-16T07:30:00;13.80;99.90
12276;DHT22;6200;48.144;11.424;2022-10-16T07:32:26;13.80;99.90
12276;DHT22;6200;48.144;11.424;2022-10-16T07:34:52;13.90;99.90
12276;DHT22;6200;48.144;11.424;2022-10-16T07:37:18;14.00;99.90
12276;DHT22;6200;48.144;11.424;2022-10-16T07:39:44;14.10;99.90
12276;DHT22;6200;48.144;11.424;2022-10-16T07:42:09;14.10;99.90
12276;DHT22;6200;48.144;11.424;2022-10-16T07:44:35;14.10;99.90
12276;DHT22;6200;48.144;11.424;2022-10-16T07:47:01;14.30;99.90
12276;DHT22;6200;48.144;11.424;2022-10-16T07:49:27;14.40;99.90
12276;DHT22;6200;48.144;11.424;2022-10-16T07:51:52;14.60;99.90
12276;DHT22;6200;48.144;11.424;2022-10-16T07:54:18;14.80;99.90
12276;DHT22;6200;48.144;11.424;2022-10-16T07:56:44;15.00;99.90
12276;DHT22;6200;48.144;11.424;2022-10-16T07:59:10;15.20;99.90
12276;DHT22;6200;48.144;11.424;2022-10-16T08:01:35;15.30;99.90
12276;DHT22;6200;48.144;11.424;2022-10-16T08:04:01;15.50;99.90
12276;DHT22;6200;48.144;11.424;2022-10-16T08:06:26;15.70;99.90
12276;DHT22;6200;48.144;11.424;2022-10-16T08:08:52;16.00;99.90
12276;DHT22;6200;48.144;11.424;2022-10-16T08:11:17;16.20;99.90
12276;DHT22;6200;48.144;11.424;2022-10-16T08:13:43;16.50;99.90
12276;DHT22;6200;48.144;11.424;2022-10-16T08:16:09;16.70;99.90
12276;DHT22;6200;48.144;11.424;2022-10-16T08:18:39;17.10;99.90
12276;DHT22;6200;48.144;11.424;2022-10-16T08:21:06;17.30;99.90
12276;DHT22;6200;48.144;11.424;2022-10-16T08:23:33;17.60;99.90
12276;DHT22;6200;48.144;11.424;2022-10-16T08:26:04;17.90;99.90
12276;DHT22;6200;48.144;11.424;2022-10-16T08:28:30;18.10;99.90
12276;DHT22;6200;48.144;11.424;2022-10-16T08:30:56;18.30;99.90
12276;DHT22;6200;48.144;11.424;2022-10-16T08:33:22;18.60;99.90
12276;DHT22;6200;48.144;11.424;2022-10-16T08:35:52;18.70;99.90
12276;DHT22;6200;48.144;11.424;2022-10-16T08:38:18;19.00;99.90
12276;DHT22;6200;48.144;11.424;2022-10-16T08:40:44;19.20;99.90
12276;DHT22;6200;48.144;11.424;2022-10-16T08:49:25;19.90;99.90
12276;DHT22;6200;48.144;11.424;2022-10-16T08:51:52;20.10;99.90
12276;DHT22;6200;48.144;11.424;2022-10-16T08:54:35;20.30;99.90
12276;DHT22;6200;48.144;11.424;2022-10-16T08:57:17;20.50;99.90
12276;DHT22;6200;48.144;11.424;2022-10-16T08:59:43;20.60;99.90
12276;DHT22;6200;48.144;11.424;2022-10-16T09:05:15;21.10;99.90
12276;DHT22;6200;48.144;11.424;2022-10-16T09:13:23;21.50;99.90
12276;DHT22;6200;48.144;11.424;2022-10-16T09:15:59;21.70;99.90
12276;DHT22;6200;48.144;11.424;2022-10-16T09:21:18;21.80;99.90
12276;DHT22;6200;48.144;11.424;2022-10-16T09:23:44;21.90;99.90
12276;DHT22;6200;48.144;11.424;2022-10-16T09:26:12;22.10;99.90
12276;DHT22;6200;48.144;11.424;2022-10-16T09:28:39;22.40;99.90
12276;DHT22;6200;48.144;11.424;2022-10-16T09:31:05;22.50;99.90
12276;DHT22;6200;48.144;11.424;2022-10-16T09:33:36;22.70;99.90
12276;DHT22;6200;48.144;11.424;2022-10-16T09:36:03;22.90;98.80
12276;DHT22;6200;48.144;11.424;2022-10-16T09:38:34;23.10;99.90
12276;DHT22;6200;48.144;11.424;2022-10-16T09:41:11;23.20;98.70
12276;DHT22;6200;48.144;11.424;2022-10-16T09:43:56;23.30;98.20
12276;DHT22;6200;48.144;11.424;2022-10-16T09:46:35;23.40;96.20
12276;DHT22;6200;48.144;11.424;2022-10-16T09:49:04;23.50;96.60
12276;DHT22;6200;48.144;11.424;2022-10-16T09:51:36;23.70;96.80
12276;DHT22;6200;48.144;11.424;2022-10-16T09:54:14;24.00;96.90
12276;DHT22;6200;48.144;11.424;2022-10-16T09:56:40;24.20;95.60
12276;DHT22;6200;48.144;11.424;2022-10-16T09:59:12;24.40;94.90
12276;DHT22;6200;48.144;11.424;2022-10-16T10:01:41;24.50;95.80
12276;DHT22;6200;48.144;11.424;2022-10-16T10:04:07;24.60;93.70
12276;DHT22;6200;48.144;11.424;2022-10-16T10:06:35;24.40;93.50
12276;DHT22;6200;48.144;11.424;2022-10-16T10:09:24;24.40;92.90
12276;DHT22;6200;48.144;11.424;2022-10-16T10:12:03;24.60;92.40
12276;DHT22;6200;48.144;11.424;2022-10-16T10:14:35;24.90;93.40
12276;DHT22;6200;48.144;11.424;2022-10-16T10:22:32;25.50;91.10
12276;DHT22;6200;48.144;11.424;2022-10-16T10:33:23;26.10;88.90
12276;DHT22;6200;48.144;11.424;2022-10-16T10:36:30;25.90;85.20
12276;DHT22;6200;48.144;11.424;2022-10-16T10:38:57;26.10;85.40
12276;DHT22;6200;48.144;11.424;2022-10-16T10:44:03;26.40;87.90
12276;DHT22;6200;48.144;11.424;2022-10-16T10:46:50;26.60;82.80
12276;DHT22;6200;48.144;11.424;2022-10-16T10:58:01;27.00;83.90
12276;DHT22;6200;48.144;11.424;2022-10-16T11:10:49;27.10;80.90
12276;DHT22;6200;48.144;11.424;2022-10-16T11:13:31;27.10;82.00
12276;DHT22;6200;48.144;11.424;2022-10-16T11:16:02;27.10;80.70
12276;DHT22;6200;48.144;11.424;2022-10-16T11:18:59;27.00;79.30
12276;DHT22;6200;48.144;11.424;2022-10-16T11:21:24;27.00;78.80
12276;DHT22;6200;48.144;11.424;2022-10-16T11:24:04;27.20;80.60
12276;DHT22;6200;48.144;11.424;2022-10-16T11:26:39;27.30;82.50
12276;DHT22;6200;48.144;11.424;2022-10-16T11:29:13;27.00;79.40
12276;DHT22;6200;48.144;11.424;2022-10-16T11:31:42;27.20;82.50
12276;DHT22;6200;48.144;11.424;2022-10-16T11:34:13;27.30;79.30
12276;DHT22;6200;48.144;11.424;2022-10-16T11:36:59;27.10;80.00
12276;DHT22;6200;48.144;11.424;2022-10-16T11:39:29;27.10;82.60
12276;DHT22;6200;48.144;11.424;2022-10-16T11:42:13;26.90;83.40
12276;DHT22;6200;48.144;11.424;2022-10-16T11:50:40;27.10;80.10
12276;DHT22;6200;48.144;11.424;2022-10-16T11:56:15;27.20;80.60
12276;DHT22;6200;48.144;11.424;2022-10-16T11:58:59;27.20;78.20
12276;DHT22;6200;48.144;11.424;2022-10-16T12:04:05;27.00;76.30
12276;DHT22;6200;48.144;11.424;2022-10-16T12:06:40;27.00;81.20
12276;DHT22;6200;48.144;11.424;2022-10-16T12:11:43;27.60;73.70
12276;DHT22;6200;48.144;11.424;2022-10-16T12:19:21;27.50;76.30
12276;DHT22;6200;48.144;11.424;2022-10-16T12:21:47;27.40;74.80
12276;DHT22;6200;48.144;11.424;2022-10-16T12:26:54;27.50;71.60
12276;DHT22;6200;48.144;11.424;2022-10-16T12:29:40;27.40;71.60
12276;DHT22;6200;48.144;11.424;2022-10-16T12:34:53;27.20;72.90
12276;DHT22;6200;48.144;11.424;2022-10-16T12:37:22;27.20;73.80
12276;DHT22;6200;48.144;11.424;2022-10-16T12:39:49;27.10;73.70
12276;DHT22;6200;48.144;11.424;2022-10-16T12:44:55;26.90;71.70
12276;DHT22;6200;48.144;11.424;2022-10-16T12:49:52;26.70;74.90
12276;DHT22;6200;48.144;11.424;2022-10-16T12:54:59;26.50;71.20
12276;DHT22;6200;48.144;11.424;2022-10-16T13:14:12;26.10;72.60
12276;DHT22;6200;48.144;11.424;2022-10-16T13:19:46;26.10;71.60
12276;DHT22;6200;48.144;11.424;2022-10-16T13:22:28;26.00;72.50
12276;DHT22;6200;48.144;11.424;2022-10-16T13:30:28;25.80;73.80
12276;DHT22;6200;48.144;11.424;2022-10-16T13:33:21;25.70;75.40
12276;DHT22;6200;48.144;11.424;2022-10-16T13:35:51;25.70;75.00
12276;DHT22;6200;48.144;11.424;2022-10-16T13:38:20;25.70;71.00
12276;DHT22;6200;48.144;11.424;2022-10-16T13:41:00;25.50;72.60
12276;DHT22;6200;48.144;11.424;2022-10-16T13:43:38;25.50;72.90
12276;DHT22;6200;48.144;11.424;2022-10-16T13:46:10;25.30;71.50
12276;DHT22;6200;48.144;11.424;2022-10-16T13:48:37;25.30;78.20
12276;DHT22;6200;48.144;11.424;2022-10-16T13:53:33;25.10;78.30
12276;DHT22;6200;48.144;11.424;2022-10-16T13:56:00;24.90;75.00
12276;DHT22;6200;48.144;11.424;2022-10-16T13:58:26;25.00;79.00
12276;DHT22;6200;48.144;11.424;2022-10-16T14:00:55;24.90;79.60
12276;DHT22;6200;48.144;11.424;2022-10-16T14:03:21;24.80;77.20
12276;DHT22;6200;48.144;11.424;2022-10-16T14:05:49;24.80;78.70
12276;DHT22;6200;48.144;11.424;2022-10-16T14:08:16;24.70;78.50
12276;DHT22;6200;48.144;11.424;2022-10-16T14:10:42;24.70;79.20
12276;DHT22;6200;48.144;11.424;2022-10-16T14:13:14;24.70;77.80
12276;DHT22;6200;48.144;11.424;2022-10-16T14:15:46;24.70;78.70
12276;DHT22;6200;48.144;11.424;2022-10-16T14:18:20;24.50;80.00
12276;DHT22;6200;48.144;11.424;2022-10-16T14:20:46;24.60;79.90
12276;DHT22;6200;48.144;11.424;2022-10-16T14:23:36;24.40;79.20
12276;DHT22;6200;48.144;11.424;2022-10-16T14:28:35;24.30;80.60
12276;DHT22;6200;48.144;11.424;2022-10-16T14:31:02;24.20;82.20
12276;DHT22;6200;48.144;11.424;2022-10-16T14:33:33;24.10;83.90
12276;DHT22;6200;48.144;11.424;2022-10-16T14:38:36;24.00;86.30
12276;DHT22;6200;48.144;11.424;2022-10-16T14:41:03;23.90;86.50
12276;DHT22;6200;48.144;11.424;2022-10-16T14:43:37;23.80;84.60
12276;DHT22;6200;48.144;11.424;2022-10-16T14:46:09;23.80;84.50
12276;DHT22;6200;48.144;11.424;2022-10-16T14:48:41;23.70;84.50
12276;DHT22;6200;48.144;11.424;2022-10-16T14:51:13;23.50;85.90
12276;DHT22;6200;48.144;11.424;2022-10-16T14:53:40;23.40;85.60
12276;DHT22;6200;48.144;11.424;2022-10-16T14:56:25;23.30;87.10
12276;DHT22;6200;48.144;11.424;2022-10-16T14:58:51;23.20;87.30
12276;DHT22;6200;48.144;11.424;2022-10-16T15:01:17;23.10;87.60
12276;DHT22;6200;48.144;11.424;2022-10-16T15:03:43;23.00;88.40
12276;DHT22;6200;48.144;11.424;2022-10-16T15:06:13;22.90;89.00
12276;DHT22;6200;48.144;11.424;2022-10-16T15:08:39;22.90;89.50
12276;DHT22;6200;48.144;11.424;2022-10-16T15:11:10;22.70;90.80
12276;DHT22;6200;48.144;11.424;2022-10-16T15:13:37;22.60;91.20
12276;DHT22;6200;48.144;11.424;2022-10-16T15:16:03;22.50;91.40
12276;DHT22;6200;48.144;11.424;2022-10-16T15:18:28;22.50;92.10
12276;DHT22;6200;48.144;11.424;2022-10-16T15:20:54;22.30;92.70
12276;DHT22;6200;48.144;11.424;2022-10-16T15:23:21;22.30;92.20
12276;DHT22;6200;48.144;11.424;2022-10-16T15:25:52;22.30;92.00
12276;DHT22;6200;48.144;11.424;2022-10-16T15:28:18;22.20;93.30
12276;DHT22;6200;48.144;11.424;2022-10-16T15:30:44;22.10;93.70
12276;DHT22;6200;48.144;11.424;2022-10-16T15:33:21;22.00;94.00
12276;DHT22;6200;48.144;11.424;2022-10-16T15:35:49;21.90;93.20
12276;DHT22;6200;48.144;11.424;2022-10-16T15:38:16;21.90;94.00
12276;DHT22;6200;48.144;11.424;2022-10-16T15:40:42;21.80;93.80
12276;DHT22;6200;48.144;11.424;2022-10-16T15:43:08;21.80;93.10
12276;DHT22;6200;48.144;11.424;2022-10-16T15:45:34;21.70;93.40
12276;DHT22;6200;48.144;11.424;2022-10-16T15:48:00;21.70;93.10
12276;DHT22;6200;48.144;11.424;2022-10-16T15:50:26;21.60;93.90
12276;DHT22;6200;48.144;11.424;2022-10-16T15:52:51;21.50;93.70
12276;DHT22;6200;48.144;11.424;2022-10-16T15:55:17;21.50;93.20
12276;DHT22;6200;48.144;11.424;2022-10-16T15:57:45;21.50;93.30
12276;DHT22;6200;48.144;11.424;2022-10-16T16:00:13;21.40;93.50
12276;DHT22;6200;48.144;11.424;2022-10-16T16:02:40;21.30;93.50
12276;DHT22;6200;48.144;11.424;2022-10-16T16:05:06;21.20;94.20
12276;DHT22;6200;48.144;11.424;2022-10-16T16:07:37;21.10;94.50
12276;DHT22;6200;48.144;11.424;2022-10-16T16:10:06;21.00;94.80
12276;DHT22;6200;48.144;11.424;2022-10-16T16:12:33;20.90;94.40
12276;DHT22;6200;48.144;11.424;2022-10-16T16:14:58;20.90;95.00
12276;DHT22;6200;48.144;11.424;2022-10-16T16:17:24;20.80;95.60
12276;DHT22;6200;48.144;11.424;2022-10-16T16:19:50;20.80;95.70
12276;DHT22;6200;48.144;11.424;2022-10-16T16:22:16;20.60;95.90
12276;DHT22;6200;48.144;11.424;2022-10-16T16:24:41;20.50;96.30
12276;DHT22;6200;48.144;11.424;2022-10-16T16:27:07;20.50;96.30
12276;DHT22;6200;48.144;11.424;2022-10-16T16:29:33;20.40;96.40
12276;DHT22;6200;48.144;11.424;2022-10-16T16:31:59;20.30;96.60
12276;DHT22;6200;48.144;11.424;2022-10-16T16:34:26;20.20;96.90
12276;DHT22;6200;48.144;11.424;2022-10-16T16:36:52;20.10;97.00
12276;DHT22;6200;48.144;11.424;2022-10-16T16:39:18;20.00;97.10
12276;DHT22;6200;48.144;11.424;2022-10-16T16:41:43;19.90;97.10
12276;DHT22;6200;48.144;11.424;2022-10-16T16:44:11;19.80;97.40
12276;DHT22;6200;48.144;11.424;2022-10-16T16:46:37;19.70;97.80
12276;DHT22;6200;48.144;11.424;2022-10-16T16:49:05;19.70;98.20
12276;DHT22;6200;48.144;11.424;2022-10-16T16:51:31;19.50;98.90
12276;DHT22;6200;48.144;11.424;2022-10-16T16:53:57;19.50;99.20
12276;DHT22;6200;48.144;11.424;2022-10-16T16:56:23;19.40;99.90
12276;DHT22;6200;48.144;11.424;2022-10-16T16:58:53;19.30;99.90
12276;DHT22;6200;48.144;11.424;2022-10-16T17:01:19;19.20;99.90
12276;DHT22;6200;48.144;11.424;2022-10-16T17:03:45;19.20;99.90
12276;DHT22;6200;48.144;11.424;2022-10-16T17:06:12;19.10;99.90
12276;DHT22;6200;48.144;11.424;2022-10-16T17:08:38;19.10;99.90
12276;DHT22;6200;48.144;11.424;2022-10-16T17:11:05;18.90;99.90
12276;DHT22;6200;48.144;11.424;2022-10-16T17:13:33;18.90;99.90
12276;DHT22;6200;48.144;11.424;2022-10-16T17:16:04;18.80;99.90
12276;DHT22;6200;48.144;11.424;2022-10-16T17:18:31;18.70;99.90
12276;DHT22;6200;48.144;11.424;2022-10-16T17:21:01;18.70;99.90
12276;DHT22;6200;48.144;11.424;2022-10-16T17:23:28;18.60;99.90
12276;DHT22;6200;48.144;11.424;2022-10-16T17:25:54;18.50;99.90
12276;DHT22;6200;48.144;11.424;2022-10-16T17:28:20;18.50;99.90
12276;DHT22;6200;48.144;11.424;2022-10-16T17:30:45;18.40;99.90
12276;DHT22;6200;48.144;11.424;2022-10-16T17:33:12;18.40;99.90
12276;DHT22;6200;48.144;11.424;2022-10-16T17:35:45;18.30;99.90
12276;DHT22;6200;48.144;11.424;2022-10-16T17:38:13;18.20;99.90
12276;DHT22;6200;48.144;11.424;2022-10-16T17:40:39;18.10;99.90
12276;DHT22;6200;48.144;11.424;2022-10-16T17:43:05;18.10;99.90
12276;DHT22;6200;48.144;11.424;2022-10-16T17:45:36;18.00;99.90